Time,TemperatureF,DewpointF,PressureIn,WindDirection,WindDirectionDegrees,WindSpeedMPH,WindSpeedGustMPH,Humidity,HourlyPrecipIn,Conditions,Clouds,dailyrainin,SoftwareType,DateUTC
2013-02-25 00:00:00,39.4,23.7,30.04,North,6,0.0,0.0,53,0.00,CLR,SCT,0.00,WeatherDisplay:10.37,2013-02-25 05:00:00,
2013-02-25 00:05:00,39.4,23.7,30.04,North,6,0.0,0.0,53,0.00,CLR,SCT,0.00,WeatherDisplay:10.37,2013-02-25 05:05:00,
2013-02-25 00:10:00,39.3,23.6,30.04,ENE,76,2.3,2.3,53,0.00,CLR,SCT,0.00,WeatherDisplay:10.37,2013-02-25 05:10:00,
2013-02-25 00:15:00,39.0,23.7,30.05,East,85,4.2,4.2,54,0.00,CLR,SCT,0.00,WeatherDisplay:10.37,2013-02-25 05:15:00,
2013-02-25 00:20:00,38.7,23.9,30.04,NE,52,5.8,5.8,55,0.00,CLR,SCT,0.00,WeatherDisplay:10.37,2013-02-25 05:20:00,
2013-02-25 00:25:00,38.5,23.7,30.04,ENE,62,5.8,5.8,55,0.00,CLR,SCT,0.00,WeatherDisplay:10.37,2013-02-25 05:25:00,
2013-02-25 00:30:00,38.3,24.0,30.04,East,80,4.6,4.6,56,0.00,CLR,SCT,0.00,WeatherDisplay:10.37,2013-02-25 05:30:00,
2013-02-25 00:35:00,38.4,24.1,30.04,NNE,31,4.9,4.9,56,0.00,CLR,SCT,0.00,WeatherDisplay:10.37,2013-02-25 05:35:00,
2013-02-25 00:40:00,38.3,24.0,30.04,NW,315,0.0,0.0,56,0.00,CLR,SCT,0.00,WeatherDisplay:10.37,2013-02-25 05:40:00,
2013-02-25 00:45:00,38.2,23.9,30.04,ENE,73,0.8,0.8,56,0.00,CLR,SCT,0.00,WeatherDisplay:10.37,2013-02-25 05:45:00,
2013-02-25 00:50:00,38.1,23.8,30.05,ENE,62,2.3,2.3,56,0.00,CLR,SCT,0.00,WeatherDisplay:10.37,2013-02-25 05:50:00,
2013-02-25 00:55:00,37.9,23.6,30.05,SSE,161,0.0,0.0,56,0.00,CLR,SCT,0.00,WeatherDisplay:10.37,2013-02-25 05:55:00,
2013-02-25 01:00:00,37.9,23.6,30.05,SSE,161,0.0,0.0,56,0.00,CLR,SCT,0.00,WeatherDisplay:10.37,2013-02-25 06:00:00,
2013-02-25 01:05:00,37.9,23.6,30.05,SSE,151,0.0,0.0,56,0.00,CLR,SCT,0.00,WeatherDisplay:10.37,2013-02-25 06:05:00,
2013-02-25 01:10:00,37.8,23.5,30.05,SSW,210,0.0,0.0,56,0.00,CLR,SCT,0.00,WeatherDisplay:10.37,2013-02-25 06:10:00,
2013-02-25 01:15:00,37.7,23.8,30.05,SSW,210,0.0,0.0,57,0.00,CLR,SCT,0.00,WeatherDisplay:10.37,2013-02-25 06:15:00,
2013-02-25 01:20:00,37.6,23.7,30.05,SSW,210,0.0,0.0,57,0.00,CLR,SCT,0.00,WeatherDisplay:10.37,2013-02-25 06:20:00,
2013-02-25 01:25:00,37.6,24.1,30.05,SSW,210,0.0,0.0,58,0.00,CLR,SCT,0.00,WeatherDisplay:10.37,2013-02-25 06:25:00,
2013-02-25 01:30:00,37.5,23.6,30.05,SSW,210,0.0,0.0,57,0.00,CLR,SCT,0.00,WeatherDisplay:10.37,2013-02-25 06:30:00,
2013-02-25 01:35:00,37.5,23.6,30.06,SSW,210,0.0,0.0,57,0.00,CLR,SCT,0.00,WeatherDisplay:10.37,2013-02-25 06:35:00,
2013-02-25 01:40:00,37.6,23.7,30.06,NE,38,0.0,0.0,57,0.00,CLR,SCT,0.00,WeatherDisplay:10.37,2013-02-25 06:40:00,
2013-02-25 01:45:00,37.5,23.6,30.06,NE,38,0.0,0.0,57,0.00,CLR,SCT,0.00,WeatherDisplay:10.37,2013-02-25 06:45:00,
2013-02-25 01:50:00,37.3,23.9,30.06,East,95,1.0,1.0,58,0.00,CLR,SCT,0.00,WeatherDisplay:10.37,2013-02-25 06:50:00,
2013-02-25 01:55:00,37.1,23.7,30.06,NE,38,2.3,2.3,58,0.00,CLR,SCT,0.00,WeatherDisplay:10.37,2013-02-25 06:55:00,
2013-02-25 02:00:00,37.1,23.7,30.06,NE,38,0.0,0.0,58,0.00,CLR,SCT,0.00,WeatherDisplay:10.37,2013-02-25 07:00:00,
2013-02-25 02:05:00,37.2,23.8,30.06,NE,38,0.0,0.0,58,0.00,CLR,SCT,0.00,WeatherDisplay:10.37,2013-02-25 07:05:00,
2013-02-25 02:10:00,37.0,23.6,30.07,NE,38,0.0,0.0,58,0.00,CLR,SCT,0.00,WeatherDisplay:10.37,2013-02-25 07:10:00,
2013-02-25 02:15:00,36.7,23.7,30.07,NE,38,0.0,0.0,59,0.00,CLR,SCT,0.00,WeatherDisplay:10.37,2013-02-25 07:15:00,
2013-02-25 02:20:00,36.7,23.7,30.07,NE,38,0.5,0.0,59,0.00,CLR,SCT,0.00,WeatherDisplay:10.37,2013-02-25 07:20:00,
2013-02-25 02:25:00,36.4,23.4,30.07,ESE,107,0.0,0.0,59,0.00,CLR,SCT,0.00,WeatherDisplay:10.37,2013-02-25 07:25:00,
2013-02-25 02:30:00,36.4,23.8,30.07,ESE,107,0.0,0.0,60,0.00,CLR,SCT,0.00,WeatherDisplay:10.37,2013-02-25 07:30:00,
2013-02-25 02:35:00,36.5,23.9,30.07,East,82,2.3,2.3,60,0.00,CLR,SCT,0.00,WeatherDisplay:10.37,2013-02-25 07:35:00,
2013-02-25 02:40:00,36.5,23.9,30.07,NNE,31,2.3,2.3,60,0.00,CLR,SCT,0.00,WeatherDisplay:10.37,2013-02-25 07:40:00,
2013-02-25 02:45:00,36.2,23.6,30.07,NNE,31,0.0,0.0,60,0.00,CLR,SCT,0.00,WeatherDisplay:10.37,2013-02-25 07:45:00,
2013-02-25 02:50:00,36.1,23.5,30.07,SE,145,2.3,2.3,60,0.00,CLR,SCT,0.00,WeatherDisplay:10.37,2013-02-25 07:50:00,
2013-02-25 02:56:00,35.9,23.4,30.08,ESE,103,5.8,5.8,60,0.00,CLR,SCT,0.00,WeatherDisplay:10.37,2013-02-25 07:56:00,
2013-02-25 03:01:00,35.8,23.3,30.07,East,85,3.5,3.5,60,0.00,CLR,SCT,0.00,WeatherDisplay:10.37,2013-02-25 08:01:00,
2013-02-25 03:06:00,35.6,23.5,30.07,NE,49,0.0,0.0,61,0.00,CLR,SCT,0.00,WeatherDisplay:10.37,2013-02-25 08:06:00,
2013-02-25 03:11:00,35.6,23.5,30.07,ENE,68,0.8,0.8,61,0.00,CLR,SCT,0.00,WeatherDisplay:10.37,2013-02-25 08:11:00,
2013-02-25 03:16:00,35.5,23.4,30.07,ENE,58,2.9,2.9,61,0.00,CLR,SCT,0.00,WeatherDisplay:10.37,2013-02-25 08:16:00,
2013-02-25 03:21:00,35.2,23.5,30.07,ENE,59,3.5,3.5,62,0.00,CLR,SCT,0.00,WeatherDisplay:10.37,2013-02-25 08:21:00,
2013-02-25 03:26:00,34.9,23.2,30.07,NE,40,1.1,0.0,62,0.00,CLR,SCT,0.00,WeatherDisplay:10.37,2013-02-25 08:26:00,
2013-02-25 03:31:00,34.9,23.2,30.08,NE,40,0.0,0.0,62,0.00,CLR,SCT,0.00,WeatherDisplay:10.37,2013-02-25 08:31:00,
2013-02-25 03:36:00,34.9,23.2,30.07,ENE,69,1.1,1.1,62,0.00,CLR,SCT,0.00,WeatherDisplay:10.37,2013-02-25 08:36:00,
2013-02-25 03:41:00,34.9,23.2,30.07,North,1,0.0,0.0,62,0.00,CLR,SCT,0.00,WeatherDisplay:10.37,2013-02-25 08:41:00,
2013-02-25 03:46:00,34.8,23.1,30.08,North,1,0.0,0.0,62,0.00,CLR,SCT,0.00,WeatherDisplay:10.37,2013-02-25 08:46:00,
2013-02-25 03:51:00,34.7,23.4,30.07,North,1,0.0,0.0,63,0.00,CLR,SCT,0.00,WeatherDisplay:10.37,2013-02-25 08:51:00,
2013-02-25 03:56:00,34.6,23.3,30.07,North,1,0.0,0.0,63,0.00,CLR,SCT,0.00,WeatherDisplay:10.37,2013-02-25 08:56:00,
2013-02-25 04:01:00,34.7,23.4,30.07,North,1,0.0,0.0,63,0.00,CLR,SCT,0.00,WeatherDisplay:10.37,2013-02-25 09:01:00,
2013-02-25 04:06:00,34.5,23.2,30.07,North,1,0.0,0.0,63,0.00,CLR,SCT,0.00,WeatherDisplay:10.37,2013-02-25 09:06:00,
2013-02-25 04:11:00,34.4,23.1,30.07,North,1,0.0,0.0,63,0.00,CLR,SCT,0.00,WeatherDisplay:10.37,2013-02-25 09:11:00,
2013-02-25 04:16:00,34.1,23.2,30.07,North,1,0.0,0.0,64,0.00,CLR,SCT,0.00,WeatherDisplay:10.37,2013-02-25 09:16:00,
2013-02-25 04:21:00,33.9,23.0,30.08,North,1,0.0,0.0,64,0.00,CLR,SCT,0.00,WeatherDisplay:10.37,2013-02-25 09:21:00,
2013-02-25 04:26:00,33.9,23.0,30.09,North,1,0.0,0.0,64,0.00,CLR,SCT,0.00,WeatherDisplay:10.37,2013-02-25 09:26:00,
2013-02-25 04:31:00,33.9,23.0,30.09,North,1,0.0,0.0,64,0.00,CLR,SCT,0.00,WeatherDisplay:10.37,2013-02-25 09:31:00,
2013-02-25 04:36:00,33.7,23.2,30.08,ENE,69,1.1,1.1,65,0.00,CLR,SCT,0.00,WeatherDisplay:10.37,2013-02-25 09:36:00,
2013-02-25 04:41:00,33.5,23.0,30.07,NE,38,3.5,3.5,65,0.00,CLR,SCT,0.00,WeatherDisplay:10.37,2013-02-25 09:41:00,
2013-02-25 04:46:00,33.3,22.8,30.07,NE,45,2.3,2.3,65,0.00,CLR,SCT,0.00,WeatherDisplay:10.37,2013-02-25 09:46:00,
2013-02-25 04:51:00,33.3,22.8,30.08,NE,56,0.0,0.0,65,0.00,CLR,SCT,0.00,WeatherDisplay:10.37,2013-02-25 09:51:00,
2013-02-25 04:56:00,33.2,22.7,30.08,NE,56,0.0,0.0,65,0.00,CLR,SCT,0.00,WeatherDisplay:10.37,2013-02-25 09:56:00,
2013-02-25 05:01:00,33.1,22.6,30.08,NE,56,2.3,2.3,65,0.00,CLR,SCT,0.00,WeatherDisplay:10.37,2013-02-25 10:01:00,
2013-02-25 05:06:00,33.0,22.5,30.08,NE,51,0.8,0.8,65,0.00,CLR,SCT,0.00,WeatherDisplay:10.37,2013-02-25 10:06:00,
2013-02-25 05:11:00,32.9,22.8,30.09,ENE,66,1.1,1.1,66,0.00,CLR,SCT,0.00,WeatherDisplay:10.37,2013-02-25 10:11:00,
2013-02-25 05:16:00,32.8,22.7,30.09,North,7,3.5,3.5,66,0.00,CLR,SCT,0.00,WeatherDisplay:10.37,2013-02-25 10:16:00,
2013-02-25 05:21:00,32.9,22.8,30.09,ENE,62,3.8,3.8,66,0.00,CLR,SCT,0.00,WeatherDisplay:10.37,2013-02-25 10:21:00,
2013-02-25 05:26:00,32.9,22.8,30.09,ENE,68,1.1,1.1,66,0.00,CLR,SCT,0.00,WeatherDisplay:10.37,2013-02-25 10:26:00,
2013-02-25 05:31:00,32.6,22.5,30.08,North,357,2.3,2.3,66,0.00,CLR,SCT,0.00,WeatherDisplay:10.37,2013-02-25 10:31:00,
2013-02-25 05:36:00,32.7,22.6,30.09,ENE,73,3.5,3.5,66,0.00,CLR,SCT,0.00,WeatherDisplay:10.37,2013-02-25 10:36:00,
2013-02-25 05:41:00,32.8,22.7,30.09,NE,48,0.0,0.0,66,0.00,CLR,SCT,0.00,WeatherDisplay:10.37,2013-02-25 10:41:00,
2013-02-25 05:46:00,32.6,22.8,30.09,NE,48,0.0,0.0,67,0.00,CLR,SCT,0.00,WeatherDisplay:10.37,2013-02-25 10:46:00,
2013-02-25 05:51:00,32.5,22.8,30.09,NE,48,0.0,0.0,67,0.00,CLR,SCT,0.00,WeatherDisplay:10.37,2013-02-25 10:51:00,
2013-02-25 05:56:00,32.5,22.8,30.09,NE,49,2.3,2.3,67,0.00,CLR,SCT,0.00,WeatherDisplay:10.37,2013-02-25 10:56:00,
2013-02-25 06:01:00,32.4,22.7,30.10,NE,54,0.0,0.0,67,0.00,CLR,SCT,0.00,WeatherDisplay:10.37,2013-02-25 11:01:00,
2013-02-25 06:06:00,32.4,22.7,30.10,NE,54,0.0,0.0,67,0.00,CLR,SCT,0.00,WeatherDisplay:10.37,2013-02-25 11:06:00,
2013-02-25 06:11:00,32.4,22.7,30.10,NE,47,0.0,0.0,67,0.00,CLR,SCT,0.00,WeatherDisplay:10.37,2013-02-25 11:11:00,
2013-02-25 06:16:00,32.4,22.7,30.10,NE,47,0.0,0.0,67,0.00,CLR,SCT,0.00,WeatherDisplay:10.37,2013-02-25 11:16:00,
2013-02-25 06:21:00,32.4,22.7,30.10,NE,47,0.0,0.0,67,0.00,CLR,SCT,0.00,WeatherDisplay:10.37,2013-02-25 11:21:00,
2013-02-25 06:26:00,32.4,22.7,30.10,NE,47,0.0,0.0,67,0.00,CLR,SCT,0.00,WeatherDisplay:10.37,2013-02-25 11:26:00,
2013-02-25 06:31:00,32.4,22.7,30.11,NE,47,0.0,0.0,67,0.00,CLR,SCT,0.00,WeatherDisplay:10.37,2013-02-25 11:31:00,
2013-02-25 06:36:00,32.3,22.6,30.11,NE,47,0.0,0.0,67,0.00,CLR,SCT,0.00,WeatherDisplay:10.37,2013-02-25 11:36:00,
2013-02-25 06:41:00,32.2,22.5,30.10,NE,47,0.0,0.0,67,0.00,CLR,SCT,0.00,WeatherDisplay:10.37,2013-02-25 11:41:00,
2013-02-25 06:46:00,32.2,22.8,30.10,NE,47,0.0,0.0,68,0.00,CLR,SCT,0.00,WeatherDisplay:10.37,2013-02-25 11:46:00,
2013-02-25 06:51:00,32.3,22.6,30.10,NE,47,0.0,0.0,67,0.00,CLR,SCT,0.00,WeatherDisplay:10.37,2013-02-25 11:51:00,
2013-02-25 06:56:00,32.3,22.6,30.10,NE,47,0.0,0.0,67,0.00,CLR,SCT,0.00,WeatherDisplay:10.37,2013-02-25 11:56:00,
2013-02-25 07:01:00,32.2,22.5,30.11,NE,47,0.0,0.0,67,0.00,CLR,SCT,0.00,WeatherDisplay:10.37,2013-02-25 12:01:00,
2013-02-25 07:06:00,32.3,22.9,30.11,NE,47,0.0,0.0,68,0.00,CLR,SCT,0.00,WeatherDisplay:10.37,2013-02-25 12:06:00,
2013-02-25 07:11:00,32.1,22.7,30.11,NE,47,0.0,0.0,68,0.00,CLR,SCT,0.00,WeatherDisplay:10.37,2013-02-25 12:11:00,
2013-02-25 07:16:00,31.9,22.5,30.11,SSE,165,2.3,2.3,68,0.00,CLR,SCT,0.00,WeatherDisplay:10.37,2013-02-25 12:16:00,
2013-02-25 07:21:00,31.6,22.6,30.12,SSE,164,1.1,0.0,69,0.00,CLR,SCT,0.00,WeatherDisplay:10.37,2013-02-25 12:21:00,
2013-02-25 07:26:00,31.5,22.5,30.11,SSE,164,0.0,0.0,69,0.00,CLR,SCT,0.00,WeatherDisplay:10.37,2013-02-25 12:26:00,
2013-02-25 07:31:00,31.5,22.1,30.11,SSE,164,0.0,0.0,68,0.00,CLR,SCT,0.00,WeatherDisplay:10.37,2013-02-25 12:31:00,
2013-02-25 07:36:00,31.6,22.6,30.11,SSE,164,0.0,0.0,69,0.00,CLR,SCT,0.00,WeatherDisplay:10.37,2013-02-25 12:36:00,
2013-02-25 07:41:00,31.6,22.2,30.12,SSE,164,0.0,0.0,68,0.00,CLR,SCT,0.00,WeatherDisplay:10.37,2013-02-25 12:41:00,
2013-02-25 07:46:00,31.8,22.8,30.13,SSE,164,0.0,0.0,69,0.00,CLR,SCT,0.00,WeatherDisplay:10.37,2013-02-25 12:46:00,
2013-02-25 07:51:00,32.0,22.6,30.14,SSE,164,0.0,0.0,68,0.00,CLR,SCT,0.00,WeatherDisplay:10.37,2013-02-25 12:51:00,
2013-02-25 07:56:00,32.1,23.1,30.14,SSE,164,0.0,0.0,69,0.00,CLR,SCT,0.00,WeatherDisplay:10.37,2013-02-25 12:56:00,
2013-02-25 08:01:00,32.2,23.2,30.14,NNE,14,0.0,0.0,69,0.00,CLR,SCT,0.00,WeatherDisplay:10.37,2013-02-25 13:01:00,
2013-02-25 08:06:00,32.2,23.2,30.14,NNE,14,0.0,0.0,69,0.00,CLR,SCT,0.00,WeatherDisplay:10.37,2013-02-25 13:06:00,
2013-02-25 08:11:00,32.3,23.6,30.15,NNE,14,0.0,0.0,70,0.00,CLR,SCT,0.00,WeatherDisplay:10.37,2013-02-25 13:11:00,
2013-02-25 08:16:00,32.4,23.7,30.15,NNE,14,0.0,0.0,70,0.00,CLR,SCT,0.00,WeatherDisplay:10.37,2013-02-25 13:16:00,
2013-02-25 08:22:00,32.6,23.9,30.15,ENE,68,0.0,0.0,70,0.00,CLR,SCT,0.00,WeatherDisplay:10.37,2013-02-25 13:22:00,
2013-02-25 08:27:00,32.9,24.2,30.15,South,181,2.3,2.3,70,0.00,CLR,SCT,0.00,WeatherDisplay:10.37,2013-02-25 13:27:00,
2013-02-25 08:32:00,32.8,23.7,30.15,SW,226,1.1,0.0,69,0.00,CLR,SCT,0.00,WeatherDisplay:10.37,2013-02-25 13:32:00,
2013-02-25 08:37:00,33.0,24.3,30.15,SW,226,0.0,0.0,70,0.00,CLR,SCT,0.00,WeatherDisplay:10.37,2013-02-25 13:37:00,
2013-02-25 08:42:00,33.1,24.4,30.16,SW,226,0.0,0.0,70,0.00,CLR,SCT,0.00,WeatherDisplay:10.37,2013-02-25 13:42:00,
2013-02-25 08:47:00,33.3,24.6,30.16,SW,226,0.0,0.0,70,0.00,CLR,SCT,0.00,WeatherDisplay:10.37,2013-02-25 13:47:00,
2013-02-25 08:52:00,33.5,24.8,30.16,SW,226,0.0,0.0,70,0.00,CLR,SCT,0.00,WeatherDisplay:10.37,2013-02-25 13:52:00,
2013-02-25 08:57:00,33.8,25.0,30.16,SW,226,0.0,0.0,70,0.00,CLR,SCT,0.00,WeatherDisplay:10.37,2013-02-25 13:57:00,
2013-02-25 09:02:00,33.9,24.8,30.16,SW,226,0.0,0.0,69,0.00,CLR,SCT,0.00,WeatherDisplay:10.37,2013-02-25 14:02:00,
2013-02-25 09:07:00,34.0,24.9,30.15,NE,44,0.0,0.0,69,0.00,CLR,SCT,0.00,WeatherDisplay:10.37,2013-02-25 14:07:00,
2013-02-25 09:12:00,34.0,24.9,30.16,ENE,78,4.2,4.2,69,0.00,CLR,SCT,0.00,WeatherDisplay:10.37,2013-02-25 14:12:00,
2013-02-25 09:17:00,34.2,25.1,30.16,ESE,103,2.3,2.3,69,0.00,CLR,SCT,0.00,WeatherDisplay:10.37,2013-02-25 14:17:00,
2013-02-25 09:22:00,34.3,24.5,30.16,SE,128,4.6,4.6,67,0.00,CLR,SCT,0.00,WeatherDisplay:10.37,2013-02-25 14:22:00,
2013-02-25 09:27:00,34.4,24.6,30.16,NE,38,1.1,1.1,67,0.00,CLR,SCT,0.00,WeatherDisplay:10.37,2013-02-25 14:27:00,
2013-02-25 09:32:00,34.5,24.7,30.16,NE,38,0.0,0.0,67,0.00,CLR,SCT,0.00,WeatherDisplay:10.37,2013-02-25 14:32:00,
2013-02-25 09:37:00,34.7,24.9,30.15,NE,38,0.0,0.0,67,0.00,CLR,SCT,0.00,WeatherDisplay:10.37,2013-02-25 14:37:00,
2013-02-25 09:42:00,34.8,24.6,30.15,SSE,147,3.1,3.1,66,0.00,CLR,SCT,0.00,WeatherDisplay:10.37,2013-02-25 14:42:00,
2013-02-25 09:47:00,34.9,25.0,30.15,ESE,109,6.1,6.1,67,0.00,CLR,SCT,0.00,WeatherDisplay:10.37,2013-02-25 14:47:00,
2013-02-25 09:52:00,35.1,24.9,30.16,SW,215,4.6,4.6,66,0.00,CLR,SCT,0.00,WeatherDisplay:10.37,2013-02-25 14:52:00,
2013-02-25 09:57:00,34.9,25.0,30.15,SE,136,5.7,5.7,67,0.00,CLR,SCT,0.00,WeatherDisplay:10.37,2013-02-25 14:57:00,
2013-02-25 10:02:00,35.1,25.2,30.16,SSE,158,3.5,3.5,67,0.00,CLR,SCT,0.00,WeatherDisplay:10.37,2013-02-25 15:02:00,
2013-02-25 10:07:00,35.2,25.3,30.16,South,172,5.8,5.8,67,0.00,CLR,SCT,0.00,WeatherDisplay:10.37,2013-02-25 15:07:00,
2013-02-25 10:12:00,35.4,25.5,30.16,South,174,4.6,4.6,67,0.00,CLR,SCT,0.00,WeatherDisplay:10.37,2013-02-25 15:12:00,
2013-02-25 10:17:00,35.5,25.3,30.16,SSE,161,5.8,5.8,66,0.00,CLR,SCT,0.00,WeatherDisplay:10.37,2013-02-25 15:17:00,
2013-02-25 10:22:00,35.5,25.3,30.16,SE,145,4.5,4.5,66,0.00,CLR,SCT,0.00,WeatherDisplay:10.37,2013-02-25 15:22:00,
2013-02-25 10:27:00,35.5,25.3,30.16,West,260,5.1,5.1,66,0.00,CLR,SCT,0.00,WeatherDisplay:10.37,2013-02-25 15:27:00,
2013-02-25 10:32:00,35.5,25.3,30.17,North,350,2.3,2.3,66,0.00,CLR,SCT,0.00,WeatherDisplay:10.37,2013-02-25 15:32:00,
2013-02-25 10:37:00,35.8,25.5,30.17,SSW,196,6.7,6.7,66,0.00,CLR,SCT,0.00,WeatherDisplay:10.37,2013-02-25 15:37:00,
2013-02-25 10:42:00,35.8,25.2,30.17,SE,124,4.6,4.6,65,0.00,CLR,SCT,0.00,WeatherDisplay:10.37,2013-02-25 15:42:00,
2013-02-25 10:47:00,36.0,25.7,30.17,SSW,193,3.5,3.6,66,0.00,CLR,SCT,0.00,WeatherDisplay:10.37,2013-02-25 15:47:00,
2013-02-25 10:52:00,36.1,25.5,30.17,South,171,6.9,6.9,65,0.00,CLR,SCT,0.00,WeatherDisplay:10.37,2013-02-25 15:52:00,
2013-02-25 10:58:00,35.8,24.8,30.16,ESE,104,3.5,3.5,64,0.00,CLR,SCT,0.00,WeatherDisplay:10.37,2013-02-25 15:58:00,
2013-02-25 11:03:00,35.9,25.3,30.16,South,175,4.6,4.7,65,0.00,CLR,SCT,0.00,WeatherDisplay:10.37,2013-02-25 16:03:00,
2013-02-25 11:08:00,35.6,25.0,30.16,SSW,196,5.8,5.8,65,0.00,CLR,SCT,0.00,WeatherDisplay:10.37,2013-02-25 16:08:00,
2013-02-25 11:13:00,35.7,24.7,30.16,East,92,5.8,5.8,64,0.00,CLR,SCT,0.00,WeatherDisplay:10.37,2013-02-25 16:13:00,
2013-02-25 11:18:00,35.8,25.2,30.17,SSE,168,6.9,6.9,65,0.00,CLR,SCT,0.00,WeatherDisplay:10.37,2013-02-25 16:18:00,
2013-02-25 11:23:00,35.9,24.9,30.16,SSE,167,9.2,9.2,64,0.00,CLR,SCT,0.00,WeatherDisplay:10.37,2013-02-25 16:23:00,
2013-02-25 11:28:00,35.9,24.9,30.16,SSE,162,12.7,12.7,64,0.00,CLR,SCT,0.00,WeatherDisplay:10.37,2013-02-25 16:28:00,
2013-02-25 11:33:00,35.8,24.8,30.16,SSE,152,9.2,9.2,64,0.00,CLR,SCT,0.00,WeatherDisplay:10.37,2013-02-25 16:33:00,
2013-02-25 11:38:00,36.0,25.4,30.16,SE,140,9.3,9.3,65,0.00,CLR,SCT,0.00,WeatherDisplay:10.37,2013-02-25 16:38:00,
2013-02-25 11:43:00,36.3,25.3,30.16,South,174,9.2,9.2,64,0.00,CLR,SCT,0.00,WeatherDisplay:10.37,2013-02-25 16:43:00,
2013-02-25 11:48:00,36.2,25.2,30.16,SSE,148,10.4,10.4,64,0.00,CLR,SCT,0.00,WeatherDisplay:10.37,2013-02-25 16:48:00,
2013-02-25 11:53:00,36.3,25.3,30.17,SSE,161,8.6,8.6,64,0.00,CLR,SCT,0.00,WeatherDisplay:10.37,2013-02-25 16:53:00,
2013-02-25 11:58:00,36.2,25.2,30.17,South,189,10.4,10.4,64,0.00,CLR,SCT,0.00,WeatherDisplay:10.37,2013-02-25 16:58:00,
2013-02-25 12:03:00,36.4,25.4,30.16,South,174,9.2,9.2,64,0.00,CLR,SCT,0.00,WeatherDisplay:10.37,2013-02-25 17:03:00,
2013-02-25 12:08:00,36.6,25.2,30.16,SSE,151,10.4,10.4,63,0.00,CLR,SCT,0.00,WeatherDisplay:10.37,2013-02-25 17:08:00,
2013-02-25 12:13:00,36.6,25.2,30.16,SSE,164,6.9,6.9,63,0.00,CLR,SCT,0.00,WeatherDisplay:10.37,2013-02-25 17:13:00,
2013-02-25 12:18:00,37.1,25.3,30.16,SSE,147,9.2,9.2,62,0.00,CLR,SCT,0.00,WeatherDisplay:10.37,2013-02-25 17:18:00,
2013-02-25 12:23:00,37.1,25.3,30.15,SSE,160,6.9,6.9,62,0.00,CLR,SCT,0.00,WeatherDisplay:10.37,2013-02-25 17:23:00,
2013-02-25 12:28:00,37.3,25.5,30.15,SW,217,1.1,1.1,62,0.00,CLR,SCT,0.00,WeatherDisplay:10.37,2013-02-25 17:28:00,
2013-02-25 12:33:00,37.7,25.8,30.15,SSE,158,5.8,5.8,62,0.00,CLR,SCT,0.00,WeatherDisplay:10.37,2013-02-25 17:33:00,
2013-02-25 12:38:00,38.1,25.4,30.14,SSE,147,4.6,4.6,60,0.00,CLR,SCT,0.00,WeatherDisplay:10.37,2013-02-25 17:38:00,
2013-02-25 12:43:00,38.3,25.6,30.13,South,174,8.1,8.1,60,0.00,CLR,SCT,0.00,WeatherDisplay:10.37,2013-02-25 17:43:00,
2013-02-25 12:48:00,38.0,25.3,30.13,South,179,8.1,8.1,60,0.00,CLR,SCT,0.00,WeatherDisplay:10.37,2013-02-25 17:48:00,
2013-02-25 12:53:00,37.8,25.1,30.12,SSW,193,4.6,4.6,60,0.00,CLR,SCT,0.00,WeatherDisplay:10.37,2013-02-25 17:53:00,
2013-02-25 12:58:00,38.0,25.3,30.12,South,174,3.5,3.5,60,0.00,CLR,SCT,0.00,WeatherDisplay:10.37,2013-02-25 17:58:00,
2013-02-25 13:03:00,38.0,25.3,30.12,SSE,168,6.9,6.9,60,0.00,CLR,SCT,0.00,WeatherDisplay:10.37,2013-02-25 18:03:00,
2013-02-25 13:08:00,38.2,25.5,30.11,South,172,4.6,4.6,60,0.00,CLR,SCT,0.00,WeatherDisplay:10.37,2013-02-25 18:08:00,
2013-02-25 13:13:00,38.4,25.7,30.11,ESE,119,6.9,6.9,60,0.00,CLR,SCT,0.00,WeatherDisplay:10.37,2013-02-25 18:13:00,
2013-02-25 13:18:00,39.1,26.0,30.11,South,176,8.1,8.1,59,0.00,CLR,SCT,0.00,WeatherDisplay:10.37,2013-02-25 18:18:00,
2013-02-25 13:23:00,39.5,25.9,30.11,ESE,116,4.6,4.6,58,0.00,CLR,SCT,0.00,WeatherDisplay:10.37,2013-02-25 18:23:00,
2013-02-25 13:28:00,39.6,26.0,30.10,East,96,3.5,3.5,58,0.00,CLR,SCT,0.00,WeatherDisplay:10.37,2013-02-25 18:28:00,
2013-02-25 13:33:00,39.9,25.9,30.10,SSE,167,4.6,4.6,57,0.00,CLR,SCT,0.00,WeatherDisplay:10.37,2013-02-25 18:33:00,
2013-02-25 13:38:00,40.3,26.3,30.10,SE,128,6.9,6.9,57,0.00,CLR,SCT,0.00,WeatherDisplay:10.37,2013-02-25 18:38:00,
2013-02-25 13:43:00,40.3,26.3,30.10,SSE,168,5.8,5.8,57,0.00,CLR,SCT,0.00,WeatherDisplay:10.37,2013-02-25 18:43:00,
2013-02-25 13:48:00,40.5,26.0,30.10,SSE,168,4.8,4.8,56,0.00,CLR,SCT,0.00,WeatherDisplay:10.37,2013-02-25 18:48:00,
2013-02-25 13:53:00,40.3,25.8,30.10,SSE,155,8.1,8.1,56,0.00,CLR,SCT,0.00,WeatherDisplay:10.37,2013-02-25 18:53:00,
2013-02-25 13:58:00,39.9,25.5,30.10,East,99,3.5,3.5,56,0.00,CLR,SCT,0.00,WeatherDisplay:10.37,2013-02-25 18:58:00,
2013-02-25 14:03:00,40.0,26.0,30.10,South,176,6.9,6.9,57,0.00,CLR,SCT,0.00,WeatherDisplay:10.37,2013-02-25 19:03:00,
2013-02-25 14:08:00,40.0,25.6,30.10,ESE,123,3.5,3.5,56,0.00,CLR,SCT,0.00,WeatherDisplay:10.37,2013-02-25 19:08:00,
2013-02-25 14:13:00,39.7,25.3,30.10,SSE,160,4.5,4.5,56,0.00,CLR,SCT,0.00,WeatherDisplay:10.37,2013-02-25 19:13:00,
2013-02-25 14:18:00,39.5,25.1,30.09,SE,134,9.2,9.2,56,0.00,CLR,SCT,0.00,WeatherDisplay:10.37,2013-02-25 19:18:00,
2013-02-25 14:23:00,39.5,25.1,30.10,SE,137,5.9,5.9,56,0.00,CLR,SCT,0.00,WeatherDisplay:10.37,2013-02-25 19:23:00,
2013-02-25 14:28:00,39.7,24.8,30.10,ENE,78,6.9,6.9,55,0.00,CLR,SCT,0.00,WeatherDisplay:10.37,2013-02-25 19:28:00,
2013-02-25 14:33:00,39.6,24.7,30.10,SSE,164,5.4,5.4,55,0.00,CLR,SCT,0.00,WeatherDisplay:10.37,2013-02-25 19:33:00,
2013-02-25 14:38:00,39.6,24.7,30.11,SSE,154,9.2,9.2,55,0.00,CLR,SCT,0.00,WeatherDisplay:10.37,2013-02-25 19:38:00,
2013-02-25 14:43:00,39.3,24.5,30.10,SSE,158,9.1,9.1,55,0.00,CLR,SCT,0.00,WeatherDisplay:10.37,2013-02-25 19:43:00,
2013-02-25 14:48:00,39.2,24.4,30.11,SSE,161,6.9,6.9,55,0.00,CLR,SCT,0.00,WeatherDisplay:10.37,2013-02-25 19:48:00,
2013-02-25 14:53:00,39.3,24.5,30.11,SSE,162,8.1,8.1,55,0.00,CLR,SCT,0.00,WeatherDisplay:10.37,2013-02-25 19:53:00,
2013-02-25 14:58:00,39.4,24.6,30.10,ESE,119,11.5,11.5,55,0.00,CLR,SCT,0.00,WeatherDisplay:10.37,2013-02-25 19:58:00,
2013-02-25 15:03:00,39.4,24.6,30.10,SSE,158,10.4,10.4,55,0.00,CLR,SCT,0.00,WeatherDisplay:10.37,2013-02-25 20:03:00,
2013-02-25 15:08:00,39.4,24.1,30.11,SE,133,12.7,12.7,54,0.00,CLR,SCT,0.00,WeatherDisplay:10.37,2013-02-25 20:08:00,
2013-02-25 15:13:00,39.5,24.2,30.11,SSE,152,13.2,13.2,54,0.00,CLR,SCT,0.00,WeatherDisplay:10.37,2013-02-25 20:13:00,
2013-02-25 15:18:00,39.3,24.0,30.11,SSE,168,8.1,8.1,54,0.00,CLR,SCT,0.00,WeatherDisplay:10.37,2013-02-25 20:18:00,
2013-02-25 15:23:00,39.5,24.2,30.10,South,172,10.4,10.4,54,0.00,CLR,SCT,0.00,WeatherDisplay:10.37,2013-02-25 20:23:00,
2013-02-25 15:28:00,39.9,24.6,30.11,SSE,148,8.1,8.1,54,0.00,CLR,SCT,0.00,WeatherDisplay:10.37,2013-02-25 20:28:00,
2013-02-25 15:33:00,40.0,24.2,30.11,South,169,11.5,11.5,53,0.00,CLR,SCT,0.00,WeatherDisplay:10.37,2013-02-25 20:33:00,
2013-02-25 15:38:00,40.2,24.4,30.10,SSE,164,10.4,10.4,53,0.00,CLR,SCT,0.00,WeatherDisplay:10.37,2013-02-25 20:38:00,
2013-02-25 15:43:00,40.3,25.0,30.10,South,169,8.1,8.1,54,0.00,CLR,SCT,0.00,WeatherDisplay:10.37,2013-02-25 20:43:00,
2013-02-25 15:48:00,40.5,24.7,30.10,SSE,158,9.2,9.2,53,0.00,CLR,SCT,0.00,WeatherDisplay:10.37,2013-02-25 20:48:00,
2013-02-25 15:53:00,40.8,24.5,30.10,SSW,203,12.7,12.7,52,0.00,CLR,SCT,0.00,WeatherDisplay:10.37,2013-02-25 20:53:00,
2013-02-25 15:58:00,41.0,24.7,30.11,South,176,10.4,10.4,52,0.00,CLR,SCT,0.00,WeatherDisplay:10.37,2013-02-25 20:58:00,
2013-02-25 16:03:00,41.1,24.8,30.11,SSE,158,9.5,9.5,52,0.00,CLR,SCT,0.00,WeatherDisplay:10.37,2013-02-25 21:03:00,
2013-02-25 16:08:00,40.8,24.5,30.11,South,181,9.2,9.2,52,0.00,CLR,SCT,0.00,WeatherDisplay:10.37,2013-02-25 21:08:00,
2013-02-25 16:13:00,40.7,24.4,30.10,SE,128,9.7,9.7,52,0.00,CLR,SCT,0.00,WeatherDisplay:10.37,2013-02-25 21:13:00,
2013-02-25 16:18:00,40.7,24.4,30.10,SSE,154,9.5,9.5,52,0.00,CLR,SCT,0.00,WeatherDisplay:10.37,2013-02-25 21:18:00,
2013-02-25 16:23:00,40.5,24.2,30.10,South,172,9.2,9.2,52,0.00,CLR,SCT,0.00,WeatherDisplay:10.37,2013-02-25 21:23:00,
2013-02-25 16:28:00,40.6,24.3,30.10,SSE,150,6.9,6.9,52,0.00,CLR,SCT,0.00,WeatherDisplay:10.37,2013-02-25 21:28:00,
2013-02-25 16:33:00,40.8,24.5,30.10,SSE,160,10.4,10.4,52,0.00,CLR,SCT,0.00,WeatherDisplay:10.37,2013-02-25 21:33:00,
2013-02-25 16:38:00,40.9,24.6,30.10,SSW,193,9.2,9.2,52,0.00,CLR,SCT,0.00,WeatherDisplay:10.37,2013-02-25 21:38:00,
2013-02-25 16:43:00,41.0,24.2,30.09,SSE,148,5.9,5.9,51,0.00,CLR,SCT,0.00,WeatherDisplay:10.37,2013-02-25 21:43:00,
2013-02-25 16:48:00,40.9,24.1,30.09,South,178,10.4,10.4,51,0.00,CLR,SCT,0.00,WeatherDisplay:10.37,2013-02-25 21:48:00,
2013-02-25 16:53:00,40.5,24.2,30.09,South,171,10.4,10.4,52,0.00,CLR,SCT,0.00,WeatherDisplay:10.37,2013-02-25 21:53:00,
2013-02-25 16:58:00,40.0,23.8,30.09,SSE,154,8.1,8.1,52,0.00,CLR,SCT,0.00,WeatherDisplay:10.37,2013-02-25 21:58:00,
2013-02-25 17:03:00,39.7,24.0,30.09,SSW,200,8.1,8.1,53,0.00,CLR,SCT,0.00,WeatherDisplay:10.37,2013-02-25 22:03:00,
2013-02-25 17:08:00,39.2,23.5,30.08,SSE,161,5.8,5.8,53,0.00,CLR,SCT,0.00,WeatherDisplay:10.37,2013-02-25 22:08:00,
2013-02-25 17:13:00,39.2,23.5,30.09,SSE,157,6.9,6.9,53,0.00,CLR,SCT,0.00,WeatherDisplay:10.37,2013-02-25 22:13:00,
2013-02-25 17:18:00,39.1,23.8,30.09,SSE,167,8.1,8.1,54,0.00,CLR,SCT,0.00,WeatherDisplay:10.37,2013-02-25 22:18:00,
2013-02-25 17:23:00,39.0,23.7,30.09,SSE,168,4.6,4.6,54,0.00,CLR,SCT,0.00,WeatherDisplay:10.37,2013-02-25 22:23:00,
2013-02-25 17:28:00,38.9,23.7,30.09,SE,140,4.6,4.6,54,0.00,CLR,SCT,0.00,WeatherDisplay:10.37,2013-02-25 22:28:00,
2013-02-25 17:33:00,38.7,23.5,30.10,SE,130,6.7,6.7,54,0.00,CLR,SCT,0.00,WeatherDisplay:10.37,2013-02-25 22:33:00,
2013-02-25 17:38:00,38.5,23.3,30.10,South,186,5.8,5.8,54,0.00,CLR,SCT,0.00,WeatherDisplay:10.37,2013-02-25 22:38:00,
2013-02-25 17:43:00,38.4,23.2,30.09,SSE,154,9.2,9.2,54,0.00,CLR,SCT,0.00,WeatherDisplay:10.37,2013-02-25 22:43:00,
2013-02-25 17:48:00,38.0,22.8,30.10,SSE,167,6.9,6.9,54,0.00,CLR,SCT,0.00,WeatherDisplay:10.37,2013-02-25 22:48:00,
2013-02-25 17:53:00,37.6,22.9,30.11,SSW,193,8.1,8.1,55,0.00,CLR,SCT,0.00,WeatherDisplay:10.37,2013-02-25 22:53:00,
2013-02-25 17:58:00,37.3,22.6,30.11,SSE,151,6.3,6.3,55,0.00,CLR,SCT,0.00,WeatherDisplay:10.37,2013-02-25 22:58:00,
2013-02-25 18:03:00,37.2,22.5,30.11,SSE,162,5.8,6.0,55,0.00,CLR,SCT,0.00,WeatherDisplay:10.37,2013-02-25 23:03:00,
2013-02-25 18:08:00,37.0,22.3,30.11,SE,128,6.9,6.9,55,0.00,CLR,SCT,0.00,WeatherDisplay:10.37,2013-02-25 23:08:00,
2013-02-25 18:13:00,37.0,22.3,30.11,South,172,5.5,5.5,55,0.00,CLR,SCT,0.00,WeatherDisplay:10.37,2013-02-25 23:13:00,
2013-02-25 18:18:00,36.7,22.5,30.11,SSE,160,8.1,8.1,56,0.00,CLR,SCT,0.00,WeatherDisplay:10.37,2013-02-25 23:18:00,
2013-02-25 18:23:00,36.6,22.4,30.11,SSE,162,5.8,5.8,56,0.00,CLR,SCT,0.00,WeatherDisplay:10.37,2013-02-25 23:23:00,
2013-02-25 18:28:00,36.2,22.0,30.11,South,169,6.9,6.9,56,0.00,CLR,SCT,0.00,WeatherDisplay:10.37,2013-02-25 23:28:00,
2013-02-25 18:33:00,35.9,22.1,30.12,SE,145,8.6,8.6,57,0.00,CLR,SCT,0.00,WeatherDisplay:10.37,2013-02-25 23:33:00,
2013-02-25 18:38:00,35.8,22.0,30.12,SSE,157,9.2,9.2,57,0.00,CLR,SCT,0.00,WeatherDisplay:10.37,2013-02-25 23:38:00,
2013-02-25 18:43:00,35.6,22.3,30.12,SE,144,9.2,9.2,58,0.00,CLR,SCT,0.00,WeatherDisplay:10.37,2013-02-25 23:43:00,
2013-02-25 18:48:00,35.4,22.1,30.12,SE,145,11.5,11.5,58,0.00,CLR,SCT,0.00,WeatherDisplay:10.37,2013-02-25 23:48:00,
2013-02-25 18:53:00,35.4,22.1,30.12,SSE,161,11.5,11.5,58,0.00,CLR,SCT,0.00,WeatherDisplay:10.37,2013-02-25 23:53:00,
2013-02-25 18:58:00,35.1,21.8,30.12,SE,144,9.2,9.2,58,0.00,CLR,SCT,0.00,WeatherDisplay:10.37,2013-02-25 23:58:00,
2013-02-25 19:03:00,35.0,21.7,30.12,SSE,155,9.2,9.2,58,0.00,CLR,SCT,0.00,WeatherDisplay:10.37,2013-02-26 00:03:00,
2013-02-25 19:08:00,35.0,22.1,30.12,SSE,164,8.1,8.1,59,0.00,CLR,SCT,0.00,WeatherDisplay:10.37,2013-02-26 00:08:00,
2013-02-25 19:13:00,34.7,21.8,30.12,SSE,168,9.6,9.6,59,0.00,CLR,SCT,0.00,WeatherDisplay:10.37,2013-02-26 00:13:00,
2013-02-25 19:18:00,34.9,22.0,30.12,South,179,10.4,10.4,59,0.00,CLR,SCT,0.00,WeatherDisplay:10.37,2013-02-26 00:18:00,
2013-02-25 19:23:00,34.9,22.0,30.12,SSE,167,8.1,8.1,59,0.00,CLR,SCT,0.00,WeatherDisplay:10.37,2013-02-26 00:23:00,
2013-02-25 19:28:00,34.8,21.9,30.12,SE,143,8.1,8.1,59,0.00,CLR,SCT,0.00,WeatherDisplay:10.37,2013-02-26 00:28:00,
2013-02-25 19:33:00,34.7,21.8,30.12,SE,145,8.1,8.1,59,0.00,CLR,SCT,0.00,WeatherDisplay:10.37,2013-02-26 00:33:00,
2013-02-25 19:38:00,34.7,21.8,30.12,SSE,165,8.1,8.1,59,0.00,CLR,SCT,0.00,WeatherDisplay:10.37,2013-02-26 00:38:00,
2013-02-25 19:43:00,34.7,21.8,30.12,SSE,165,7.0,7.4,59,0.00,CLR,SCT,0.00,WeatherDisplay:10.37,2013-02-26 00:43:00,
2013-02-25 19:48:00,34.7,21.8,30.12,South,171,8.1,8.1,59,0.00,CLR,SCT,0.00,WeatherDisplay:10.37,2013-02-26 00:48:00,
2013-02-25 19:53:00,34.8,21.9,30.11,SSE,150,8.1,8.1,59,0.00,CLR,SCT,0.00,WeatherDisplay:10.37,2013-02-26 00:53:00,
2013-02-25 19:59:00,34.6,21.7,30.11,SSE,164,5.8,5.8,59,0.00,CLR,SCT,0.00,WeatherDisplay:10.37,2013-02-26 00:59:00,
2013-02-25 20:04:00,34.8,21.9,30.11,SSE,158,4.6,4.6,59,0.00,CLR,SCT,0.00,WeatherDisplay:10.37,2013-02-26 01:04:00,
2013-02-25 20:09:00,34.7,21.8,30.11,SSE,161,7.4,7.4,59,0.00,CLR,SCT,0.00,WeatherDisplay:10.37,2013-02-26 01:09:00,
2013-02-25 20:15:00,34.7,21.8,30.11,SE,145,4.6,4.6,59,0.00,CLR,SCT,0.00,WeatherDisplay:10.37,2013-02-26 01:15:00,
2013-02-25 20:20:00,34.5,21.2,30.11,SSE,154,6.9,6.9,58,0.00,CLR,SCT,0.00,WeatherDisplay:10.37,2013-02-26 01:20:00,
2013-02-25 20:25:00,34.6,21.3,30.11,SSE,162,4.6,4.6,58,0.00,CLR,SCT,0.00,WeatherDisplay:10.37,2013-02-26 01:25:00,
2013-02-25 20:30:00,34.5,21.6,30.12,SSE,168,6.9,6.9,59,0.00,CLR,SCT,0.00,WeatherDisplay:10.37,2013-02-26 01:30:00,
2013-02-25 20:35:00,34.2,21.4,30.12,SE,144,11.5,11.5,59,0.00,CLR,SCT,0.00,WeatherDisplay:10.37,2013-02-26 01:35:00,
2013-02-25 20:40:00,33.7,21.3,30.12,South,172,10.4,10.4,60,0.00,CLR,SCT,0.00,WeatherDisplay:10.37,2013-02-26 01:40:00,
2013-02-25 20:45:00,33.6,21.2,30.12,SSE,157,10.4,10.4,60,0.00,CLR,SCT,0.00,WeatherDisplay:10.37,2013-02-26 01:45:00,
2013-02-25 20:50:00,33.4,21.0,30.12,SSE,160,15.0,15.0,60,0.00,CLR,SCT,0.00,WeatherDisplay:10.37,2013-02-26 01:50:00,
2013-02-25 20:55:00,33.4,21.4,30.12,SSE,150,10.4,10.4,61,0.00,CLR,SCT,0.00,WeatherDisplay:10.37,2013-02-26 01:55:00,
2013-02-25 21:00:00,33.5,21.5,30.12,South,172,9.2,9.2,61,0.00,CLR,SCT,0.00,WeatherDisplay:10.37,2013-02-26 02:00:00,
2013-02-25 21:05:00,33.5,21.1,30.12,South,171,9.2,9.2,60,0.00,CLR,SCT,0.00,WeatherDisplay:10.37,2013-02-26 02:05:00,
2013-02-25 21:10:00,33.6,21.6,30.12,SE,140,12.5,12.5,61,0.00,CLR,SCT,0.00,WeatherDisplay:10.37,2013-02-26 02:10:00,
2013-02-25 21:15:00,33.5,21.5,30.12,SSE,158,9.2,9.2,61,0.00,CLR,SCT,0.00,WeatherDisplay:10.37,2013-02-26 02:15:00,
2013-02-25 21:20:00,33.1,21.1,30.11,SSE,150,11.5,11.5,61,0.00,CLR,SCT,0.00,WeatherDisplay:10.37,2013-02-26 02:20:00,
2013-02-25 21:25:00,33.3,21.3,30.12,SSE,164,11.5,11.5,61,0.00,CLR,SCT,0.00,WeatherDisplay:10.37,2013-02-26 02:25:00,
2013-02-25 21:30:00,33.4,21.4,30.11,SSE,165,13.8,13.8,61,0.00,CLR,SCT,0.00,WeatherDisplay:10.37,2013-02-26 02:30:00,
2013-02-25 21:35:00,33.5,21.5,30.11,SSE,151,18.4,18.4,61,0.00,CLR,SCT,0.00,WeatherDisplay:10.37,2013-02-26 02:35:00,
2013-02-25 21:40:00,33.5,21.5,30.11,SE,137,11.5,11.5,61,0.00,CLR,SCT,0.00,WeatherDisplay:10.37,2013-02-26 02:40:00,
2013-02-25 21:45:00,33.3,21.3,30.12,SE,141,16.1,16.1,61,0.00,CLR,SCT,0.00,WeatherDisplay:10.37,2013-02-26 02:45:00,
2013-02-25 21:51:00,33.3,21.3,30.13,SSE,157,16.0,16.0,61,0.00,CLR,SCT,0.00,WeatherDisplay:10.37,2013-02-26 02:51:00,
2013-02-25 21:56:00,33.2,21.2,30.13,South,169,11.5,11.5,61,0.00,CLR,SCT,0.00,WeatherDisplay:10.37,2013-02-26 02:56:00,
2013-02-25 22:01:00,33.1,21.1,30.13,SE,144,8.1,8.1,61,0.00,CLR,SCT,0.00,WeatherDisplay:10.37,2013-02-26 03:01:00,
2013-02-25 22:06:00,33.1,21.5,30.12,SSE,161,12.7,12.7,62,0.00,CLR,SCT,0.00,WeatherDisplay:10.37,2013-02-26 03:06:00,
2013-02-25 22:11:00,33.1,21.5,30.12,SSE,161,6.9,6.9,62,0.00,CLR,SCT,0.00,WeatherDisplay:10.37,2013-02-26 03:11:00,
2013-02-25 22:16:00,33.0,21.0,30.13,SSE,165,10.4,10.4,61,0.00,CLR,SCT,0.00,WeatherDisplay:10.37,2013-02-26 03:16:00,
2013-02-25 22:21:00,33.1,21.5,30.13,SSE,148,10.4,10.4,62,0.00,CLR,SCT,0.00,WeatherDisplay:10.37,2013-02-26 03:21:00,
2013-02-25 22:26:00,33.0,21.4,30.13,SSE,164,9.3,9.3,62,0.00,CLR,SCT,0.00,WeatherDisplay:10.37,2013-02-26 03:26:00,
2013-02-25 22:31:00,32.9,21.3,30.13,South,175,6.9,6.9,62,0.00,CLR,SCT,0.00,WeatherDisplay:10.37,2013-02-26 03:31:00,
2013-02-25 22:36:00,32.8,21.2,30.13,SE,141,11.5,11.5,62,0.00,CLR,SCT,0.00,WeatherDisplay:10.37,2013-02-26 03:36:00,
2013-02-25 22:41:00,33.0,21.4,30.13,SSE,164,10.4,10.4,62,0.00,CLR,SCT,0.00,WeatherDisplay:10.37,2013-02-26 03:41:00,
2013-02-25 22:46:00,32.9,21.3,30.14,SSE,150,9.2,9.2,62,0.00,CLR,SCT,0.00,WeatherDisplay:10.37,2013-02-26 03:46:00,
2013-02-25 22:51:00,32.9,21.3,30.14,SSE,167,8.1,8.1,62,0.00,CLR,SCT,0.00,WeatherDisplay:10.37,2013-02-26 03:51:00,
2013-02-25 22:56:00,32.8,21.2,30.14,South,171,6.9,6.9,62,0.00,CLR,SCT,0.00,WeatherDisplay:10.37,2013-02-26 03:56:00,
2013-02-25 23:01:00,32.5,21.3,30.13,South,172,10.4,10.4,63,0.00,FEW,SCT,0.00,WeatherDisplay:10.37,2013-02-26 04:01:00,
2013-02-25 23:06:00,32.4,21.2,30.13,South,171,8.1,8.1,63,0.00,FEW,SCT,0.00,WeatherDisplay:10.37,2013-02-26 04:06:00,
2013-02-25 23:11:00,32.4,21.2,30.11,SSE,160,9.2,9.2,63,0.00,FEW,SCT,0.00,WeatherDisplay:10.37,2013-02-26 04:11:00,
2013-02-25 23:16:00,32.5,21.3,30.11,South,175,8.1,8.1,63,0.00,FEW,SCT,0.00,WeatherDisplay:10.37,2013-02-26 04:16:00,
2013-02-25 23:21:00,32.5,21.3,30.12,SSE,165,6.9,6.9,63,0.00,FEW,SCT,0.00,WeatherDisplay:10.37,2013-02-26 04:21:00,
2013-02-25 23:26:00,32.5,21.3,30.12,SSE,160,10.4,10.4,63,0.00,FEW,SCT,0.00,WeatherDisplay:10.37,2013-02-26 04:26:00,
2013-02-25 23:31:00,32.8,21.2,30.12,South,169,6.9,6.9,62,0.00,FEW,SCT,0.00,WeatherDisplay:10.37,2013-02-26 04:31:00,
2013-02-25 23:36:00,32.7,21.1,30.13,South,171,11.4,11.4,62,0.00,FEW,SCT,0.00,WeatherDisplay:10.37,2013-02-26 04:36:00,
2013-02-25 23:41:00,32.8,21.6,30.12,SE,136,11.5,11.5,63,0.00,FEW,SCT,0.00,WeatherDisplay:10.37,2013-02-26 04:41:00,
2013-02-25 23:46:00,32.8,21.2,30.11,SSE,157,4.6,4.6,62,0.00,FEW,SCT,0.00,WeatherDisplay:10.37,2013-02-26 04:46:00,
2013-02-25 23:51:00,32.8,21.2,30.11,SSE,158,4.6,4.6,62,0.00,FEW,SCT,0.00,WeatherDisplay:10.37,2013-02-26 04:51:00,
2013-02-25 23:56:00,32.7,21.1,30.11,SE,141,2.3,2.3,62,0.00,FEW,SCT,0.00,WeatherDisplay:10.37,2013-02-26 04:56:00,